sensor_id;sensor_type;location;lat;lon;timestamp;temperature;humidity
50738;DHT22;36703;48.154;17.126;2023-04-29T00:00:09;17.10;47.40
50738;DHT22;36703;48.154;17.126;2023-04-29T00:04:15;17.00;47.50
50738;DHT22;36703;48.154;17.126;2023-04-29T00:08:16;17.10;47.50
50738;DHT22;36703;48.154;17.126;2023-04-29T00:12:18;17.00;47.60
50738;DHT22;36703;48.154;17.126;2023-04-29T00:16:19;16.80;47.60
50738;DHT22;36703;48.154;17.126;2023-04-29T00:20:22;16.90;47.70
50738;DHT22;36703;48.154;17.126;2023-04-29T00:24:23;16.90;47.90
50738;DHT22;36703;48.154;17.126;2023-04-29T00:28:28;16.90;47.80
50738;DHT22;36703;48.154;17.126;2023-04-29T00:32:29;16.90;47.90
50738;DHT22;36703;48.154;17.126;2023-04-29T00:36:31;16.90;48.00
50738;DHT22;36703;48.154;17.126;2023-04-29T00:40:35;17.10;48.10
50738;DHT22;36703;48.154;17.126;2023-04-29T00:44:37;16.90;48.00
50738;DHT22;36703;48.154;17.126;2023-04-29T00:48:39;16.90;48.30
50738;DHT22;36703;48.154;17.126;2023-04-29T00:52:42;16.90;48.40
50738;DHT22;36703;48.154;17.126;2023-04-29T00:56:44;16.80;48.30
50738;DHT22;36703;48.154;17.126;2023-04-29T01:00:47;16.80;48.30
50738;DHT22;36703;48.154;17.126;2023-04-29T01:04:49;16.60;48.10
50738;DHT22;36703;48.154;17.126;2023-04-29T01:09:20;17.00;48.50
50738;DHT22;36703;48.154;17.126;2023-04-29T01:13:34;16.80;48.40
50738;DHT22;36703;48.154;17.126;2023-04-29T01:17:49;16.70;48.50
50738;DHT22;36703;48.154;17.126;2023-04-29T01:21:55;16.70;48.50
50738;DHT22;36703;48.154;17.126;2023-04-29T01:25:57;17.20;48.80
50738;DHT22;36703;48.154;17.126;2023-04-29T01:30:43;16.70;49.00
50738;DHT22;36703;48.154;17.126;2023-04-29T01:35:19;16.70;48.50
50738;DHT22;36703;48.154;17.126;2023-04-29T01:39:58;16.70;48.60
50738;DHT22;36703;48.154;17.126;2023-04-29T01:44:10;16.70;48.70
50738;DHT22;36703;48.154;17.126;2023-04-29T01:48:17;16.70;49.20
50738;DHT22;36703;48.154;17.126;2023-04-29T01:52:19;16.70;48.50
50738;DHT22;36703;48.154;17.126;2023-04-29T01:56:29;16.50;48.50
50738;DHT22;36703;48.154;17.126;2023-04-29T02:00:38;16.70;48.70
50738;DHT22;36703;48.154;17.126;2023-04-29T02:04:40;16.70;49.30
50738;DHT22;36703;48.154;17.126;2023-04-29T02:08:43;16.70;48.70
50738;DHT22;36703;48.154;17.126;2023-04-29T02:12:44;16.60;48.80
50738;DHT22;36703;48.154;17.126;2023-04-29T02:16:47;16.60;48.70
50738;DHT22;36703;48.154;17.126;2023-04-29T02:20:49;16.70;49.10
50738;DHT22;36703;48.154;17.126;2023-04-29T02:24:54;16.70;48.80
50738;DHT22;36703;48.154;17.126;2023-04-29T02:28:59;16.70;49.30
50738;DHT22;36703;48.154;17.126;2023-04-29T02:33:01;16.50;48.80
50738;DHT22;36703;48.154;17.126;2023-04-29T02:37:03;16.70;48.90
50738;DHT22;36703;48.154;17.126;2023-04-29T02:41:05;16.70;48.90
50738;DHT22;36703;48.154;17.126;2023-04-29T02:45:07;16.60;49.00
50738;DHT22;36703;48.154;17.126;2023-04-29T02:49:09;16.50;49.10
50738;DHT22;36703;48.154;17.126;2023-04-29T02:53:11;16.60;49.20
50738;DHT22;36703;48.154;17.126;2023-04-29T02:57:13;16.80;49.30
50738;DHT22;36703;48.154;17.126;2023-04-29T03:01:15;16.40;49.70
50738;DHT22;36703;48.154;17.126;2023-04-29T03:05:16;16.70;49.80
50738;DHT22;36703;48.154;17.126;2023-04-29T03:09:18;17.30;49.80
50738;DHT22;36703;48.154;17.126;2023-04-29T03:13:21;16.60;49.30
50738;DHT22;36703;48.154;17.126;2023-04-29T03:17:23;16.50;51.40
50738;DHT22;36703;48.154;17.126;2023-04-29T03:21:25;16.70;50.70
50738;DHT22;36703;48.154;17.126;2023-04-29T03:25:27;16.40;49.30
50738;DHT22;36703;48.154;17.126;2023-04-29T03:29:30;16.50;49.50
50738;DHT22;36703;48.154;17.126;2023-04-29T03:33:32;16.40;49.50
50738;DHT22;36703;48.154;17.126;2023-04-29T03:37:34;16.50;49.40
50738;DHT22;36703;48.154;17.126;2023-04-29T03:41:51;16.50;49.60
50738;DHT22;36703;48.154;17.126;2023-04-29T03:45:53;16.50;49.60
50738;DHT22;36703;48.154;17.126;2023-04-29T03:49:56;16.50;49.70
50738;DHT22;36703;48.154;17.126;2023-04-29T03:53:58;16.40;49.70
50738;DHT22;36703;48.154;17.126;2023-04-29T03:58:00;16.40;49.50
50738;DHT22;36703;48.154;17.126;2023-04-29T04:02:03;16.70;49.70
50738;DHT22;36703;48.154;17.126;2023-04-29T04:06:05;16.70;49.90
50738;DHT22;36703;48.154;17.126;2023-04-29T04:10:07;16.40;49.80
50738;DHT22;36703;48.154;17.126;2023-04-29T04:14:08;16.40;49.70
50738;DHT22;36703;48.154;17.126;2023-04-29T04:18:10;16.50;49.80
50738;DHT22;36703;48.154;17.126;2023-04-29T04:22:14;16.40;49.90
50738;DHT22;36703;48.154;17.126;2023-04-29T04:26:25;16.40;49.90
50738;DHT22;36703;48.154;17.126;2023-04-29T04:30:29;16.40;50.50
50738;DHT22;36703;48.154;17.126;2023-04-29T04:34:31;16.40;49.90
50738;DHT22;36703;48.154;17.126;2023-04-29T04:38:35;16.40;50.50
50738;DHT22;36703;48.154;17.126;2023-04-29T04:42:41;16.40;49.90
50738;DHT22;36703;48.154;17.126;2023-04-29T04:46:47;16.50;49.90
50738;DHT22;36703;48.154;17.126;2023-04-29T04:51:09;16.50;49.80
50738;DHT22;36703;48.154;17.126;2023-04-29T04:55:11;16.50;49.70
50738;DHT22;36703;48.154;17.126;2023-04-29T04:59:13;16.50;49.70
50738;DHT22;36703;48.154;17.126;2023-04-29T05:03:15;16.50;50.50
50738;DHT22;36703;48.154;17.126;2023-04-29T05:07:17;16.50;49.70
50738;DHT22;36703;48.154;17.126;2023-04-29T05:11:34;16.50;49.80
50738;DHT22;36703;48.154;17.126;2023-04-29T05:15:48;16.50;49.90
50738;DHT22;36703;48.154;17.126;2023-04-29T05:19:55;16.70;49.70
50738;DHT22;36703;48.154;17.126;2023-04-29T05:23:57;16.90;49.60
50738;DHT22;36703;48.154;17.126;2023-04-29T05:27:59;16.70;49.70
50738;DHT22;36703;48.154;17.126;2023-04-29T05:32:04;16.70;49.30
50738;DHT22;36703;48.154;17.126;2023-04-29T05:36:06;16.70;49.40
50738;DHT22;36703;48.154;17.126;2023-04-29T05:40:11;16.80;49.40
50738;DHT22;36703;48.154;17.126;2023-04-29T05:44:14;16.80;49.80
50738;DHT22;36703;48.154;17.126;2023-04-29T05:48:16;16.70;49.30
50738;DHT22;36703;48.154;17.126;2023-04-29T05:52:18;16.90;49.20
50738;DHT22;36703;48.154;17.126;2023-04-29T05:56:23;16.90;49.20
50738;DHT22;36703;48.154;17.126;2023-04-29T06:00:25;16.80;49.20
50738;DHT22;36703;48.154;17.126;2023-04-29T06:04:32;17.10;49.30
50738;DHT22;36703;48.154;17.126;2023-04-29T06:08:48;16.90;49.20
50738;DHT22;36703;48.154;17.126;2023-04-29T06:12:55;16.80;49.30
50738;DHT22;36703;48.154;17.126;2023-04-29T06:16:56;16.80;49.50
50738;DHT22;36703;48.154;17.126;2023-04-29T06:20:59;16.70;49.70
50738;DHT22;36703;48.154;17.126;2023-04-29T06:25:01;16.70;50.20
50738;DHT22;36703;48.154;17.126;2023-04-29T06:29:18;16.70;50.20
50738;DHT22;36703;48.154;17.126;2023-04-29T06:33:26;16.80;51.10
50738;DHT22;36703;48.154;17.126;2023-04-29T06:37:31;16.80;51.30
50738;DHT22;36703;48.154;17.126;2023-04-29T06:41:51;16.90;50.70
50738;DHT22;36703;48.154;17.126;2023-04-29T06:46:25;16.70;50.40
50738;DHT22;36703;48.154;17.126;2023-04-29T06:50:49;16.90;50.60
50738;DHT22;36703;48.154;17.126;2023-04-29T06:54:54;16.90;50.70
50738;DHT22;36703;48.154;17.126;2023-04-29T06:58:56;17.00;50.80
50738;DHT22;36703;48.154;17.126;2023-04-29T07:03:02;16.50;52.50
50738;DHT22;36703;48.154;17.126;2023-04-29T07:07:03;17.00;51.20
50738;DHT22;36703;48.154;17.126;2023-04-29T07:11:09;17.10;51.40
50738;DHT22;36703;48.154;17.126;2023-04-29T07:15:10;17.10;51.10
50738;DHT22;36703;48.154;17.126;2023-04-29T07:19:12;17.10;51.30
50738;DHT22;36703;48.154;17.126;2023-04-29T07:23:14;17.10;51.60
50738;DHT22;36703;48.154;17.126;2023-04-29T07:27:15;17.00;52.60
50738;DHT22;36703;48.154;17.126;2023-04-29T07:31:17;17.10;51.80
50738;DHT22;36703;48.154;17.126;2023-04-29T07:35:19;17.00;52.40
50738;DHT22;36703;48.154;17.126;2023-04-29T07:39:23;17.00;52.00
50738;DHT22;36703;48.154;17.126;2023-04-29T07:43:30;17.10;52.40
50738;DHT22;36703;48.154;17.126;2023-04-29T07:47:32;17.00;52.20
50738;DHT22;36703;48.154;17.126;2023-04-29T07:51:33;17.00;52.90
50738;DHT22;36703;48.154;17.126;2023-04-29T07:55:38;17.00;52.50
50738;DHT22;36703;48.154;17.126;2023-04-29T07:59:41;17.00;52.10
50738;DHT22;36703;48.154;17.126;2023-04-29T08:03:45;16.90;53.00
50738;DHT22;36703;48.154;17.126;2023-04-29T08:07:48;17.20;52.50
50738;DHT22;36703;48.154;17.126;2023-04-29T08:11:53;16.90;52.40
50738;DHT22;36703;48.154;17.126;2023-04-29T08:15:54;16.90;52.60
50738;DHT22;36703;48.154;17.126;2023-04-29T08:19:56;16.80;52.70
50738;DHT22;36703;48.154;17.126;2023-04-29T08:23:58;16.80;52.70
50738;DHT22;36703;48.154;17.126;2023-04-29T08:28:00;16.70;52.80
50738;DHT22;36703;48.154;17.126;2023-04-29T08:32:01;16.70;53.00
50738;DHT22;36703;48.154;17.126;2023-04-29T08:36:06;16.70;53.80
50738;DHT22;36703;48.154;17.126;2023-04-29T08:40:12;16.80;53.10
50738;DHT22;36703;48.154;17.126;2023-04-29T08:44:19;16.90;53.10
50738;DHT22;36703;48.154;17.126;2023-04-29T08:48:22;17.20;53.30
50738;DHT22;36703;48.154;17.126;2023-04-29T08:52:23;17.40;53.20
50738;DHT22;36703;48.154;17.126;2023-04-29T08:56:25;17.60;53.20
50738;DHT22;36703;48.154;17.126;2023-04-29T09:00:27;17.80;52.40
50738;DHT22;36703;48.154;17.126;2023-04-29T09:04:54;17.90;52.30
50738;DHT22;36703;48.154;17.126;2023-04-29T09:09:06;18.00;52.10
50738;DHT22;36703;48.154;17.126;2023-04-29T09:13:08;18.10;52.00
50738;DHT22;36703;48.154;17.126;2023-04-29T09:17:40;18.30;51.80
50738;DHT22;36703;48.154;17.126;2023-04-29T09:21:53;18.50;51.40
50738;DHT22;36703;48.154;17.126;2023-04-29T09:25:56;18.40;51.30
50738;DHT22;36703;48.154;17.126;2023-04-29T09:30:01;18.40;51.20
50738;DHT22;36703;48.154;17.126;2023-04-29T09:34:03;18.70;51.50
50738;DHT22;36703;48.154;17.126;2023-04-29T09:38:12;18.50;51.20
50738;DHT22;36703;48.154;17.126;2023-04-29T09:42:14;18.60;51.10
50738;DHT22;36703;48.154;17.126;2023-04-29T09:46:16;18.60;51.00
50738;DHT22;36703;48.154;17.126;2023-04-29T09:50:17;18.60;51.00
50738;DHT22;36703;48.154;17.126;2023-04-29T09:54:24;18.70;51.10
50738;DHT22;36703;48.154;17.126;2023-04-29T09:58:33;18.80;51.00
50738;DHT22;36703;48.154;17.126;2023-04-29T10:02:40;18.80;51.00
50738;DHT22;36703;48.154;17.126;2023-04-29T10:06:50;18.90;50.80
50738;DHT22;36703;48.154;17.126;2023-04-29T10:10:54;18.80;50.80
50738;DHT22;36703;48.154;17.126;2023-04-29T10:15:33;18.90;51.00
50738;DHT22;36703;48.154;17.126;2023-04-29T10:19:56;18.80;50.90
50738;DHT22;36703;48.154;17.126;2023-04-29T10:24:01;18.80;51.00
50738;DHT22;36703;48.154;17.126;2023-04-29T10:28:04;18.80;50.90
50738;DHT22;36703;48.154;17.126;2023-04-29T10:32:10;18.80;50.90
50738;DHT22;36703;48.154;17.126;2023-04-29T10:36:14;18.70;50.80
50738;DHT22;36703;48.154;17.126;2023-04-29T10:40:30;18.70;50.90
50738;DHT22;36703;48.154;17.126;2023-04-29T10:49:38;18.70;51.10
50738;DHT22;36703;48.154;17.126;2023-04-29T10:54:21;18.80;51.10
50738;DHT22;36703;48.154;17.126;2023-04-29T10:58:40;18.80;51.20
50738;DHT22;36703;48.154;17.126;2023-04-29T11:02:46;18.90;51.30
50738;DHT22;36703;48.154;17.126;2023-04-29T11:06:53;19.00;51.60
50738;DHT22;36703;48.154;17.126;2023-04-29T11:11:00;19.10;51.90
50738;DHT22;36703;48.154;17.126;2023-04-29T11:15:02;19.10;52.10
50738;DHT22;36703;48.154;17.126;2023-04-29T11:19:06;19.20;52.10
50738;DHT22;36703;48.154;17.126;2023-04-29T11:23:08;19.30;52.10
50738;DHT22;36703;48.154;17.126;2023-04-29T11:27:11;19.30;52.10
50738;DHT22;36703;48.154;17.126;2023-04-29T11:31:12;19.40;52.10
50738;DHT22;36703;48.154;17.126;2023-04-29T11:35:16;19.40;51.90
50738;DHT22;36703;48.154;17.126;2023-04-29T11:39:18;19.60;51.90
50738;DHT22;36703;48.154;17.126;2023-04-29T11:43:21;19.50;51.90
50738;DHT22;36703;48.154;17.126;2023-04-29T11:47:30;19.50;52.60
50738;DHT22;36703;48.154;17.126;2023-04-29T11:51:31;19.50;52.10
50738;DHT22;36703;48.154;17.126;2023-04-29T11:55:33;19.80;52.30
50738;DHT22;36703;48.154;17.126;2023-04-29T11:59:35;20.40;51.60
50738;DHT22;36703;48.154;17.126;2023-04-29T12:03:36;21.30;51.00
50738;DHT22;36703;48.154;17.126;2023-04-29T12:07:38;22.70;50.00
50738;DHT22;36703;48.154;17.126;2023-04-29T12:11:40;23.50;48.70
50738;DHT22;36703;48.154;17.126;2023-04-29T12:15:46;23.70;47.90
50738;DHT22;36703;48.154;17.126;2023-04-29T12:19:50;23.60;47.40
50738;DHT22;36703;48.154;17.126;2023-04-29T12:23:51;23.70;47.20
50738;DHT22;36703;48.154;17.126;2023-04-29T12:27:58;23.80;46.90
50738;DHT22;36703;48.154;17.126;2023-04-29T12:32:00;23.70;46.20
50738;DHT22;36703;48.154;17.126;2023-04-29T12:36:02;23.30;45.80
50738;DHT22;36703;48.154;17.126;2023-04-29T12:40:04;23.00;45.90
50738;DHT22;36703;48.154;17.126;2023-04-29T12:44:07;22.60;46.00
50738;DHT22;36703;48.154;17.126;2023-04-29T12:48:11;22.20;46.30
50738;DHT22;36703;48.154;17.126;2023-04-29T12:52:14;21.90;46.60
50738;DHT22;36703;48.154;17.126;2023-04-29T12:56:15;21.70;47.00
50738;DHT22;36703;48.154;17.126;2023-04-29T13:00:18;21.60;47.40
50738;DHT22;36703;48.154;17.126;2023-04-29T13:04:20;21.50;47.50
50738;DHT22;36703;48.154;17.126;2023-04-29T13:08:22;21.40;48.30
50738;DHT22;36703;48.154;17.126;2023-04-29T13:12:23;21.50;48.10
50738;DHT22;36703;48.154;17.126;2023-04-29T13:16:25;21.60;48.10
50738;DHT22;36703;48.154;17.126;2023-04-29T13:20:27;21.70;48.20
50738;DHT22;36703;48.154;17.126;2023-04-29T13:24:28;21.70;48.30
50738;DHT22;36703;48.154;17.126;2023-04-29T13:28:30;21.70;48.40
50738;DHT22;36703;48.154;17.126;2023-04-29T13:32:32;21.70;48.60
50738;DHT22;36703;48.154;17.126;2023-04-29T13:36:34;21.70;48.60
50738;DHT22;36703;48.154;17.126;2023-04-29T13:40:35;21.70;48.50
50738;DHT22;36703;48.154;17.126;2023-04-29T13:44:37;21.60;48.60
50738;DHT22;36703;48.154;17.126;2023-04-29T13:48:38;21.60;48.70
50738;DHT22;36703;48.154;17.126;2023-04-29T13:52:40;21.50;48.80
50738;DHT22;36703;48.154;17.126;2023-04-29T13:56:42;21.60;48.90
50738;DHT22;36703;48.154;17.126;2023-04-29T14:00:44;21.50;48.80
50738;DHT22;36703;48.154;17.126;2023-04-29T14:04:45;21.60;48.90
50738;DHT22;36703;48.154;17.126;2023-04-29T14:08:48;21.50;49.00
50738;DHT22;36703;48.154;17.126;2023-04-29T14:12:49;21.50;49.00
50738;DHT22;36703;48.154;17.126;2023-04-29T14:16:51;21.60;49.00
50738;DHT22;36703;48.154;17.126;2023-04-29T14:20:52;21.60;49.00
50738;DHT22;36703;48.154;17.126;2023-04-29T14:24:55;21.60;49.00
50738;DHT22;36703;48.154;17.126;2023-04-29T14:28:57;21.60;49.80
50738;DHT22;36703;48.154;17.126;2023-04-29T14:32:59;21.60;49.40
50738;DHT22;36703;48.154;17.126;2023-04-29T14:37:01;21.50;49.60
50738;DHT22;36703;48.154;17.126;2023-04-29T14:41:03;21.50;49.70
50738;DHT22;36703;48.154;17.126;2023-04-29T14:45:05;21.50;49.80
50738;DHT22;36703;48.154;17.126;2023-04-29T14:49:07;21.40;50.00
50738;DHT22;36703;48.154;17.126;2023-04-29T14:53:08;21.40;50.10
50738;DHT22;36703;48.154;17.126;2023-04-29T14:57:10;21.30;50.40
50738;DHT22;36703;48.154;17.126;2023-04-29T15:01:12;21.20;50.50
50738;DHT22;36703;48.154;17.126;2023-04-29T15:05:13;21.00;50.60
50738;DHT22;36703;48.154;17.126;2023-04-29T15:09:15;21.00;50.70
50738;DHT22;36703;48.154;17.126;2023-04-29T15:13:16;20.90;50.80
50738;DHT22;36703;48.154;17.126;2023-04-29T15:17:18;20.90;50.70
50738;DHT22;36703;48.154;17.126;2023-04-29T15:21:20;20.90;50.70
50738;DHT22;36703;48.154;17.126;2023-04-29T15:25:22;20.80;51.50
50738;DHT22;36703;48.154;17.126;2023-04-29T15:29:23;20.70;51.00
50738;DHT22;36703;48.154;17.126;2023-04-29T15:33:25;20.60;51.20
50738;DHT22;36703;48.154;17.126;2023-04-29T15:37:27;20.50;51.50
50738;DHT22;36703;48.154;17.126;2023-04-29T15:41:29;20.40;51.70
50738;DHT22;36703;48.154;17.126;2023-04-29T15:45:31;20.40;51.80
50738;DHT22;36703;48.154;17.126;2023-04-29T15:49:33;20.30;51.80
50738;DHT22;36703;48.154;17.126;2023-04-29T15:53:34;20.30;51.90
50738;DHT22;36703;48.154;17.126;2023-04-29T15:57:36;20.30;52.10
50738;DHT22;36703;48.154;17.126;2023-04-29T16:01:41;20.30;52.10
50738;DHT22;36703;48.154;17.126;2023-04-29T16:05:42;20.20;52.20
50738;DHT22;36703;48.154;17.126;2023-04-29T16:09:44;20.20;52.40
50738;DHT22;36703;48.154;17.126;2023-04-29T16:13:46;20.20;52.40
50738;DHT22;36703;48.154;17.126;2023-04-29T16:17:47;20.20;52.40
50738;DHT22;36703;48.154;17.126;2023-04-29T16:21:49;20.20;52.40
50738;DHT22;36703;48.154;17.126;2023-04-29T16:25:51;20.20;52.40
50738;DHT22;36703;48.154;17.126;2023-04-29T16:29:52;20.30;52.40
50738;DHT22;36703;48.154;17.126;2023-04-29T16:33:54;20.20;52.30
50738;DHT22;36703;48.154;17.126;2023-04-29T16:37:57;20.20;52.30
50738;DHT22;36703;48.154;17.126;2023-04-29T16:41:58;20.20;52.30
50738;DHT22;36703;48.154;17.126;2023-04-29T16:46:00;20.20;53.00
50738;DHT22;36703;48.154;17.126;2023-04-29T16:50:03;20.10;52.40
50738;DHT22;36703;48.154;17.126;2023-04-29T16:54:08;20.10;52.40
50738;DHT22;36703;48.154;17.126;2023-04-29T16:58:09;20.10;52.40
50738;DHT22;36703;48.154;17.126;2023-04-29T17:02:11;20.10;52.40
50738;DHT22;36703;48.154;17.126;2023-04-29T17:06:16;20.10;52.60
50738;DHT22;36703;48.154;17.126;2023-04-29T17:10:18;20.10;52.70
50738;DHT22;36703;48.154;17.126;2023-04-29T17:14:20;20.00;52.80
50738;DHT22;36703;48.154;17.126;2023-04-29T17:18:21;20.00;52.90
50738;DHT22;36703;48.154;17.126;2023-04-29T17:22:23;19.90;53.00
50738;DHT22;36703;48.154;17.126;2023-04-29T17:26:25;19.90;53.10
50738;DHT22;36703;48.154;17.126;2023-04-29T17:30:27;19.90;53.20
50738;DHT22;36703;48.154;17.126;2023-04-29T17:34:29;20.00;53.10
50738;DHT22;36703;48.154;17.126;2023-04-29T17:38:31;19.90;53.20
50738;DHT22;36703;48.154;17.126;2023-04-29T17:42:36;19.90;53.10
50738;DHT22;36703;48.154;17.126;2023-04-29T17:46:37;19.80;53.30
50738;DHT22;36703;48.154;17.126;2023-04-29T17:50:40;19.80;53.40
50738;DHT22;36703;48.154;17.126;2023-04-29T17:54:42;19.80;53.40
50738;DHT22;36703;48.154;17.126;2023-04-29T17:58:43;19.80;53.40
50738;DHT22;36703;48.154;17.126;2023-04-29T18:02:45;19.80;53.40
50738;DHT22;36703;48.154;17.126;2023-04-29T18:06:47;19.80;53.50
50738;DHT22;36703;48.154;17.126;2023-04-29T18:10:48;19.70;53.50
50738;DHT22;36703;48.154;17.126;2023-04-29T18:14:50;19.70;53.70
50738;DHT22;36703;48.154;17.126;2023-04-29T18:18:52;19.70;53.70
50738;DHT22;36703;48.154;17.126;2023-04-29T18:22:53;19.60;53.60
50738;DHT22;36703;48.154;17.126;2023-04-29T18:26:55;19.60;53.60
50738;DHT22;36703;48.154;17.126;2023-04-29T18:30:57;19.50;53.80
50738;DHT22;36703;48.154;17.126;2023-04-29T18:34:59;19.50;54.00
50738;DHT22;36703;48.154;17.126;2023-04-29T18:39:01;19.50;54.10
50738;DHT22;36703;48.154;17.126;2023-04-29T18:43:02;19.50;54.00
50738;DHT22;36703;48.154;17.126;2023-04-29T18:47:04;19.50;53.90
50738;DHT22;36703;48.154;17.126;2023-04-29T18:51:06;19.50;54.00
50738;DHT22;36703;48.154;17.126;2023-04-29T18:55:07;19.50;54.10
50738;DHT22;36703;48.154;17.126;2023-04-29T18:59:09;19.50;54.10
50738;DHT22;36703;48.154;17.126;2023-04-29T19:03:15;19.50;54.20
50738;DHT22;36703;48.154;17.126;2023-04-29T19:07:16;19.50;54.20
50738;DHT22;36703;48.154;17.126;2023-04-29T19:11:18;19.40;54.20
50738;DHT22;36703;48.154;17.126;2023-04-29T19:15:20;19.40;54.30
50738;DHT22;36703;48.154;17.126;2023-04-29T19:19:24;19.40;54.40
50738;DHT22;36703;48.154;17.126;2023-04-29T19:23:26;19.30;54.40
50738;DHT22;36703;48.154;17.126;2023-04-29T19:27:28;19.10;54.70
50738;DHT22;36703;48.154;17.126;2023-04-29T19:31:29;18.90;55.00
50738;DHT22;36703;48.154;17.126;2023-04-29T19:35:31;18.90;55.30
50738;DHT22;36703;48.154;17.126;2023-04-29T19:39:32;18.80;55.30
50738;DHT22;36703;48.154;17.126;2023-04-29T19:43:34;18.80;55.30
50738;DHT22;36703;48.154;17.126;2023-04-29T19:47:36;18.90;55.10
50738;DHT22;36703;48.154;17.126;2023-04-29T19:51:37;18.90;55.10
50738;DHT22;36703;48.154;17.126;2023-04-29T19:55:41;19.00;55.00
50738;DHT22;36703;48.154;17.126;2023-04-29T19:59:42;19.00;55.00
50738;DHT22;36703;48.154;17.126;2023-04-29T20:03:44;19.10;55.00
50738;DHT22;36703;48.154;17.126;2023-04-29T20:07:46;19.10;55.00
50738;DHT22;36703;48.154;17.126;2023-04-29T20:11:48;19.10;54.90
50738;DHT22;36703;48.154;17.126;2023-04-29T20:15:50;19.10;55.40
50738;DHT22;36703;48.154;17.126;2023-04-29T20:19:52;19.10;54.70
50738;DHT22;36703;48.154;17.126;2023-04-29T20:23:53;19.10;54.70
50738;DHT22;36703;48.154;17.126;2023-04-29T20:27:55;19.10;54.70
50738;DHT22;36703;48.154;17.126;2023-04-29T20:31:59;19.10;54.80
50738;DHT22;36703;48.154;17.126;2023-04-29T20:36:03;19.10;55.00
50738;DHT22;36703;48.154;17.126;2023-04-29T20:40:07;19.10;55.00
50738;DHT22;36703;48.154;17.126;2023-04-29T20:44:10;19.10;55.10
50738;DHT22;36703;48.154;17.126;2023-04-29T20:48:11;19.10;55.10
50738;DHT22;36703;48.154;17.126;2023-04-29T20:52:13;19.10;55.20
50738;DHT22;36703;48.154;17.126;2023-04-29T20:56:14;19.20;55.30
50738;DHT22;36703;48.154;17.126;2023-04-29T21:00:16;19.20;55.40
50738;DHT22;36703;48.154;17.126;2023-04-29T21:04:18;19.20;55.40
50738;DHT22;36703;48.154;17.126;2023-04-29T21:08:21;19.10;55.50
50738;DHT22;36703;48.154;17.126;2023-04-29T21:12:22;19.10;55.60
50738;DHT22;36703;48.154;17.126;2023-04-29T21:16:25;19.10;55.80
50738;DHT22;36703;48.154;17.126;2023-04-29T21:20:26;19.10;55.90
50738;DHT22;36703;48.154;17.126;2023-04-29T21:24:28;19.10;56.00
50738;DHT22;36703;48.154;17.126;2023-04-29T21:28:31;19.10;56.00
50738;DHT22;36703;48.154;17.126;2023-04-29T21:32:33;19.10;56.10
50738;DHT22;36703;48.154;17.126;2023-04-29T21:36:36;19.20;56.10
50738;DHT22;36703;48.154;17.126;2023-04-29T21:40:39;19.10;56.10
50738;DHT22;36703;48.154;17.126;2023-04-29T21:44:42;19.10;56.20
50738;DHT22;36703;48.154;17.126;2023-04-29T21:48:44;19.00;56.30
50738;DHT22;36703;48.154;17.126;2023-04-29T21:52:46;19.00;56.30
50738;DHT22;36703;48.154;17.126;2023-04-29T21:56:48;19.00;56.40
50738;DHT22;36703;48.154;17.126;2023-04-29T22:00:49;19.00;56.50
50738;DHT22;36703;48.154;17.126;2023-04-29T22:04:58;18.90;56.40
50738;DHT22;36703;48.154;17.126;2023-04-29T22:09:00;18.90;56.50
50738;DHT22;36703;48.154;17.126;2023-04-29T22:13:01;18.80;56.40
50738;DHT22;36703;48.154;17.126;2023-04-29T22:17:03;18.80;56.50
50738;DHT22;36703;48.154;17.126;2023-04-29T22:21:05;18.80;56.40
50738;DHT22;36703;48.154;17.126;2023-04-29T22:25:07;18.70;56.50
50738;DHT22;36703;48.154;17.126;2023-04-29T22:29:09;18.70;56.50
50738;DHT22;36703;48.154;17.126;2023-04-29T22:33:11;18.70;56.50
50738;DHT22;36703;48.154;17.126;2023-04-29T22:37:13;18.60;56.50
50738;DHT22;36703;48.154;17.126;2023-04-29T22:41:15;18.50;56.40
50738;DHT22;36703;48.154;17.126;2023-04-29T22:45:17;18.50;56.40
50738;DHT22;36703;48.154;17.126;2023-04-29T22:49:18;18.40;56.30
50738;DHT22;36703;48.154;17.126;2023-04-29T22:53:20;18.40;56.40
50738;DHT22;36703;48.154;17.126;2023-04-29T22:57:22;18.60;56.30
50738;DHT22;36703;48.154;17.126;2023-04-29T23:01:24;18.40;56.10
50738;DHT22;36703;48.154;17.126;2023-04-29T23:05:25;18.40;56.10
50738;DHT22;36703;48.154;17.126;2023-04-29T23:09:27;18.40;56.00
50738;DHT22;36703;48.154;17.126;2023-04-29T23:13:29;18.40;55.80
50738;DHT22;36703;48.154;17.126;2023-04-29T23:17:32;18.30;55.70
50738;DHT22;36703;48.154;17.126;2023-04-29T23:21:37;18.20;55.60
50738;DHT22;36703;48.154;17.126;2023-04-29T23:25:39;18.20;56.30
50738;DHT22;36703;48.154;17.126;2023-04-29T23:29:40;18.20;55.60
50738;DHT22;36703;48.154;17.126;2023-04-29T23:33:42;18.20;55.50
50738;DHT22;36703;48.154;17.126;2023-04-29T23:37:44;18.20;55.40
50738;DHT22;36703;48.154;17.126;2023-04-29T23:41:45;18.10;55.30
50738;DHT22;36703;48.154;17.126;2023-04-29T23:45:47;18.00;55.20
50738;DHT22;36703;48.154;17.126;2023-04-29T23:49:48;18.00;55.10
50738;DHT22;36703;48.154;17.126;2023-04-29T23:53:50;18.00;55.10
50738;DHT22;36703;48.154;17.126;2023-04-29T23:57:52;17.90;54.90
